createdAt,value
2023-04-23T00:00:30.894Z,0.50
2023-04-23T00:03:01.319Z,0.43
2023-04-23T00:05:31.790Z,0.50
2023-04-23T00:08:03.388Z,0.63
2023-04-23T00:10:33.043Z,0.57
2023-04-23T00:13:05.928Z,0.52
2023-04-23T00:15:36.145Z,0.60
2023-04-23T00:18:05.614Z,0.32
2023-04-23T00:20:35.877Z,0.50
2023-04-23T00:23:05.590Z,0.40
2023-04-23T00:25:35.370Z,0.43
2023-04-23T00:28:07.863Z,0.40
2023-04-23T00:30:37.983Z,0.50
2023-04-23T00:33:07.653Z,0.60
2023-04-23T00:35:37.302Z,0.60
2023-04-23T00:38:06.749Z,0.60
2023-04-23T00:40:36.149Z,0.50
2023-04-23T00:43:09.881Z,0.65
2023-04-23T00:45:39.416Z,0.50
2023-04-23T00:48:09.910Z,0.50
2023-04-23T00:50:39.480Z,0.40
2023-04-23T00:53:09.054Z,0.50
2023-04-23T00:55:38.644Z,0.43
2023-04-23T00:58:10.991Z,0.43
2023-04-23T01:03:24.850Z,0.32
2023-04-23T01:05:55.059Z,0.45
2023-04-23T01:08:27.537Z,0.50
2023-04-23T01:10:57.353Z,0.75
2023-04-23T01:13:29.958Z,0.38
2023-04-23T01:16:00.194Z,0.40
2023-04-23T01:18:29.809Z,0.38
2023-04-23T01:20:59.324Z,0.50
2023-04-23T01:23:31.562Z,0.38
2023-04-23T01:26:01.163Z,0.80
2023-04-23T01:28:30.902Z,0.68
2023-04-23T01:31:04.838Z,0.60
2023-04-23T01:33:34.772Z,0.70
2023-04-23T01:36:05.802Z,0.80
2023-04-23T01:38:41.022Z,0.60
2023-04-23T01:41:10.637Z,0.57
2023-04-23T01:43:40.649Z,0.60
2023-04-23T01:46:10.593Z,0.38
2023-04-23T01:48:40.398Z,0.68
2023-04-23T01:51:09.869Z,0.30
2023-04-23T01:53:41.911Z,0.88
2023-04-23T01:56:12.559Z,0.73
2023-04-23T01:58:42.197Z,0.82
2023-04-23T02:01:11.772Z,0.73
2023-04-23T02:03:41.516Z,0.60
2023-04-23T02:06:11.503Z,0.80
2023-04-23T02:08:44.071Z,0.85
2023-04-23T02:11:13.551Z,0.68
2023-04-23T02:13:42.967Z,0.90
2023-04-23T02:16:13.965Z,0.80
2023-04-23T02:18:43.430Z,0.82
2023-04-23T02:21:13.295Z,0.70
2023-04-23T02:23:45.324Z,0.63
2023-04-23T02:26:14.810Z,1.10
2023-04-23T02:28:44.222Z,0.80
2023-04-23T02:31:13.978Z,0.80
2023-04-23T02:33:43.732Z,0.57
2023-04-23T02:36:13.469Z,0.50
2023-04-23T02:38:45.818Z,0.90
2023-04-23T02:41:15.216Z,0.82
2023-04-23T02:43:44.582Z,0.80
2023-04-23T02:46:13.986Z,0.85
2023-04-23T02:48:44.840Z,0.88
2023-04-23T02:51:15.641Z,0.88
2023-04-23T02:53:47.606Z,0.77
2023-04-23T02:56:17.000Z,0.80
2023-04-23T02:58:46.618Z,0.93
2023-04-23T03:01:16.082Z,0.90
2023-04-23T03:03:46.076Z,1.10
2023-04-23T03:06:15.585Z,0.90
2023-04-23T03:08:47.606Z,0.90
2023-04-23T03:11:17.019Z,0.63
2023-04-23T03:13:46.504Z,0.93
2023-04-23T03:16:15.938Z,0.90
2023-04-23T03:18:45.496Z,0.57
2023-04-23T03:21:14.950Z,0.77
2023-04-23T03:23:47.101Z,0.57
2023-04-23T03:26:16.456Z,0.60
2023-04-23T03:28:45.936Z,1.30
2023-04-23T03:31:15.927Z,1.40
2023-04-23T03:33:45.392Z,1.30
2023-04-23T03:36:15.812Z,0.95
2023-04-23T03:38:47.832Z,1.50
2023-04-23T03:41:17.968Z,1.35
2023-04-23T03:43:47.376Z,1.10
2023-04-23T03:46:16.855Z,1.35
2023-04-23T03:48:46.481Z,1.45
2023-04-23T03:51:16.242Z,1.05
2023-04-23T03:53:48.583Z,1.23
2023-04-23T03:56:18.138Z,1.20
2023-04-23T03:58:47.543Z,1.10
2023-04-23T04:01:17.332Z,1.42
2023-04-23T04:03:46.975Z,1.10
2023-04-23T04:06:16.638Z,1.40
2023-04-23T04:08:48.599Z,1.30
2023-04-23T04:11:18.272Z,0.88
2023-04-23T04:13:47.659Z,1.48
2023-04-23T04:16:17.089Z,1.42
2023-04-23T04:18:46.593Z,1.15
2023-04-23T04:21:17.353Z,1.17
2023-04-23T04:23:49.336Z,1.25
2023-04-23T04:26:19.026Z,1.38
2023-04-23T04:28:48.391Z,0.98
2023-04-23T04:31:20.626Z,1.70
2023-04-23T04:33:50.094Z,1.02
2023-04-23T04:36:19.522Z,1.77
2023-04-23T04:38:52.368Z,1.52
2023-04-23T04:41:22.268Z,1.80
2023-04-23T04:43:51.969Z,1.20
2023-04-23T04:46:21.947Z,1.15
2023-04-23T04:48:51.523Z,1.65
2023-04-23T04:51:20.992Z,1.45
2023-04-23T04:53:53.037Z,1.60
2023-04-23T04:56:24.265Z,0.98
2023-04-23T04:58:53.747Z,1.42
2023-04-23T05:01:24.894Z,1.80
2023-04-23T05:03:54.590Z,1.40
2023-04-23T05:06:24.360Z,1.98
2023-04-23T05:08:56.346Z,1.60
2023-04-23T05:11:25.808Z,1.52
2023-04-23T05:13:55.309Z,1.67
2023-04-23T05:16:24.723Z,0.90
2023-04-23T05:18:54.127Z,1.85
2023-04-23T05:21:23.652Z,1.95
2023-04-23T05:23:53.050Z,1.42
2023-04-23T05:26:25.149Z,1.77
2023-04-23T05:28:54.571Z,1.42
2023-04-23T05:31:23.984Z,1.20
2023-04-23T05:33:53.449Z,1.48
2023-04-23T05:36:22.849Z,1.40
2023-04-23T05:38:52.795Z,1.40
2023-04-23T05:41:24.816Z,1.70
2023-04-23T05:43:54.214Z,1.65
2023-04-23T05:46:23.645Z,1.40
2023-04-23T05:48:53.831Z,1.20
2023-04-23T05:51:23.273Z,1.38
2023-04-23T05:53:55.774Z,1.50
2023-04-23T05:56:28.457Z,1.10
2023-04-23T05:58:58.116Z,1.15
2023-04-23T06:01:27.710Z,1.17
2023-04-23T06:03:57.323Z,1.52
2023-04-23T06:06:28.143Z,1.75
2023-04-23T06:08:57.610Z,1.70
2023-04-23T06:11:32.806Z,0.82
2023-04-23T06:14:04.271Z,0.98
2023-04-23T06:16:33.940Z,1.13
2023-04-23T06:19:03.335Z,1.10
2023-04-23T06:21:32.918Z,1.40
2023-04-23T06:24:02.311Z,0.77
2023-04-23T06:26:34.377Z,1.38
2023-04-23T06:29:03.758Z,1.30
2023-04-23T06:31:33.406Z,1.02
2023-04-23T06:34:02.775Z,0.90
2023-04-23T06:36:32.480Z,1.00
2023-04-23T06:39:04.492Z,0.82
2023-04-23T06:41:36.511Z,0.98
2023-04-23T06:44:06.363Z,0.70
2023-04-23T06:46:35.995Z,1.08
2023-04-23T06:49:05.487Z,0.80
2023-04-23T06:51:35.168Z,0.60
2023-04-23T06:54:04.549Z,1.33
2023-04-23T06:56:36.549Z,0.57
2023-04-23T06:59:06.977Z,0.50
2023-04-23T07:01:37.968Z,0.80
2023-04-23T07:04:07.433Z,0.70
2023-04-23T07:06:36.991Z,0.30
2023-04-23T07:09:07.421Z,0.65
2023-04-23T07:11:39.586Z,0.47
2023-04-23T07:14:09.406Z,0.80
2023-04-23T07:16:38.834Z,0.70
2023-04-23T07:19:08.240Z,0.80
2023-04-23T07:21:37.664Z,0.50
2023-04-23T07:24:07.817Z,0.60
2023-04-23T07:26:40.114Z,0.80
2023-04-23T07:29:10.686Z,0.32
2023-04-23T07:31:42.159Z,0.70
2023-04-23T07:34:11.809Z,0.70
2023-04-23T07:36:41.244Z,0.70
2023-04-23T07:39:11.208Z,0.75
2023-04-23T07:41:43.241Z,0.57
2023-04-23T07:44:12.908Z,0.85
2023-04-23T07:46:42.291Z,0.35
2023-04-23T07:49:11.642Z,0.50
2023-04-23T07:51:41.775Z,0.70
2023-04-23T07:54:11.699Z,0.50
2023-04-23T07:56:43.701Z,0.43
2023-04-23T07:59:13.096Z,0.50
2023-04-23T08:01:42.492Z,0.60
2023-04-23T08:04:13.286Z,0.90
2023-04-23T08:06:43.200Z,0.63
2023-04-23T08:09:12.842Z,0.73
2023-04-23T08:11:45.088Z,0.50
2023-04-23T08:14:14.527Z,1.17
2023-04-23T08:16:43.911Z,0.65
2023-04-23T08:19:13.996Z,1.15
2023-04-23T08:21:43.486Z,1.25
2023-04-23T08:24:13.150Z,1.45
2023-04-23T08:26:45.119Z,0.70
2023-04-23T08:29:14.621Z,0.85
2023-04-23T08:31:44.390Z,1.38
2023-04-23T08:34:15.640Z,1.23
2023-04-23T08:36:46.509Z,1.23
2023-04-23T08:39:16.018Z,1.10
2023-04-23T08:41:52.013Z,1.35
2023-04-23T08:44:22.601Z,0.63
2023-04-23T08:46:52.476Z,0.93
2023-04-23T08:49:22.068Z,1.38
2023-04-23T08:51:52.979Z,1.00
2023-04-23T08:54:26.899Z,1.10
2023-04-23T08:57:02.023Z,0.95
2023-04-23T08:59:36.073Z,1.38
2023-04-23T09:02:10.162Z,0.88
2023-04-23T09:04:40.585Z,0.85
2023-04-23T09:07:11.633Z,0.82
2023-04-23T09:09:42.087Z,1.35
2023-04-23T09:12:14.304Z,1.02
2023-04-23T09:14:43.826Z,1.13
2023-04-23T09:17:13.428Z,0.77
2023-04-23T09:19:43.449Z,0.60
2023-04-23T09:22:13.226Z,0.70
2023-04-23T09:24:45.103Z,0.90
2023-04-23T09:27:26.985Z,0.95
2023-04-23T09:29:59.706Z,0.90
2023-04-23T09:32:35.299Z,0.93
2023-04-23T09:35:09.191Z,0.82
2023-04-23T09:37:40.569Z,0.88
2023-04-23T09:40:11.388Z,0.98
2023-04-23T09:42:43.753Z,0.95
2023-04-23T09:45:16.124Z,0.60
2023-04-23T09:47:53.639Z,0.80
2023-04-23T09:50:34.167Z,0.65
2023-04-23T09:53:04.350Z,0.90
2023-04-23T09:55:35.854Z,0.93
2023-04-23T09:58:10.304Z,0.90
2023-04-23T10:00:42.716Z,1.25
2023-04-23T10:03:13.216Z,0.68
2023-04-23T10:06:00.443Z,1.02
2023-04-23T10:08:32.100Z,1.00
2023-04-23T10:11:19.534Z,0.77
2023-04-23T10:13:52.508Z,0.90
2023-04-23T10:16:28.532Z,1.38
2023-04-23T10:19:04.518Z,1.10
2023-04-23T10:21:50.047Z,1.25
2023-04-23T10:24:28.500Z,1.00
2023-04-23T10:27:02.035Z,1.40
2023-04-23T10:29:36.931Z,1.25
2023-04-23T10:32:09.105Z,1.30
2023-04-23T10:34:38.609Z,0.93
2023-04-23T10:37:09.196Z,1.23
2023-04-23T10:39:39.670Z,0.85
2023-04-23T10:42:09.707Z,1.48
2023-04-23T10:47:17.060Z,1.05
2023-04-23T10:49:47.381Z,0.75
2023-04-23T10:52:21.732Z,0.70
2023-04-23T10:55:01.036Z,0.98
2023-04-23T10:57:30.868Z,0.50
2023-04-23T11:00:06.705Z,0.98
2023-04-23T11:02:46.708Z,0.80
2023-04-23T11:05:16.487Z,0.75
2023-04-23T11:08:18.347Z,1.10
2023-04-23T11:10:58.576Z,0.65
2023-04-23T11:13:29.000Z,0.95
2023-04-23T11:16:19.763Z,0.90
2023-04-23T11:19:03.698Z,0.90
2023-04-23T11:22:01.118Z,0.90
2023-04-23T11:24:32.463Z,0.75
2023-04-23T11:27:02.892Z,0.88
2023-04-23T11:29:32.348Z,0.65
2023-04-23T11:32:05.571Z,1.70
2023-04-23T11:34:36.529Z,0.40
2023-04-23T11:37:06.165Z,0.63
2023-04-23T11:39:35.810Z,0.40
2023-04-23T11:42:06.677Z,0.80
2023-04-23T11:44:36.144Z,0.60
2023-04-23T11:47:11.323Z,0.57
2023-04-23T11:49:41.355Z,0.90
2023-04-23T11:52:11.532Z,0.82
2023-04-23T11:54:43.319Z,0.70
2023-04-23T11:57:14.687Z,0.65
2023-04-23T11:59:44.385Z,0.40
2023-04-23T12:02:16.714Z,1.17
2023-04-23T12:04:46.665Z,0.65
2023-04-23T12:07:25.842Z,0.55
2023-04-23T12:10:01.180Z,0.77
2023-04-23T12:12:36.127Z,0.55
2023-04-23T12:15:09.998Z,0.65
2023-04-23T12:17:42.226Z,0.35
2023-04-23T12:20:15.914Z,0.68
2023-04-23T12:22:45.695Z,0.55
2023-04-23T12:25:16.217Z,0.43
2023-04-23T12:27:49.517Z,0.73
2023-04-23T12:30:19.265Z,0.75
2023-04-23T12:32:51.958Z,0.55
2023-04-23T12:35:22.629Z,0.60
2023-04-23T12:37:52.937Z,0.50
2023-04-23T12:40:23.003Z,0.38
2023-04-23T12:42:52.691Z,0.47
2023-04-23T12:45:22.158Z,0.65
2023-04-23T12:47:54.304Z,0.55
2023-04-23T12:50:23.837Z,0.50
2023-04-23T12:52:53.774Z,0.50
2023-04-23T12:55:24.238Z,0.47
2023-04-23T12:57:53.742Z,0.57
2023-04-23T13:00:24.432Z,0.55
2023-04-23T13:02:58.371Z,0.90
2023-04-23T13:05:27.978Z,0.40
2023-04-23T13:07:57.502Z,0.57
2023-04-23T13:10:27.096Z,0.50
2023-04-23T13:12:56.599Z,0.55
2023-04-23T13:15:27.141Z,0.40
2023-04-23T13:17:59.408Z,0.30
2023-04-23T13:20:29.074Z,0.60
2023-04-23T13:22:58.610Z,0.50
2023-04-23T13:25:28.339Z,0.40
2023-04-23T13:27:58.083Z,0.50
2023-04-23T13:30:27.612Z,0.60
2023-04-23T13:32:59.910Z,0.50
2023-04-23T13:35:29.485Z,0.25
2023-04-23T13:37:59.023Z,0.50
2023-04-23T13:40:28.642Z,0.47
2023-04-23T13:42:58.270Z,0.25
2023-04-23T13:45:29.257Z,0.30
2023-04-23T13:48:02.560Z,0.45
2023-04-23T13:50:32.161Z,0.05
2023-04-23T13:53:01.688Z,0.60
2023-04-23T13:55:31.456Z,0.40
2023-04-23T13:58:01.071Z,0.50
2023-04-23T14:00:31.950Z,0.70
2023-04-23T14:03:04.226Z,0.32
2023-04-23T14:05:34.366Z,0.68
2023-04-23T14:08:04.030Z,0.60
2023-04-23T14:10:34.201Z,0.80
2023-04-23T14:13:06.256Z,0.50
2023-04-23T14:15:35.921Z,0.60
2023-04-23T14:18:08.637Z,0.52
2023-04-23T14:20:38.694Z,0.60
2023-04-23T14:23:41.105Z,0.52
2023-04-23T14:26:13.016Z,0.70
2023-04-23T14:28:47.566Z,0.50
2023-04-23T14:31:17.135Z,0.60
2023-04-23T14:33:49.302Z,0.75
2023-04-23T14:36:19.587Z,0.45
2023-04-23T14:38:49.189Z,0.40
2023-04-23T14:41:18.747Z,0.43
2023-04-23T14:43:48.245Z,0.38
2023-04-23T14:46:17.796Z,0.47
2023-04-23T14:48:51.510Z,0.45
2023-04-23T14:51:21.942Z,0.50
2023-04-23T14:53:51.547Z,0.60
2023-04-23T14:56:21.077Z,0.50
2023-04-23T14:58:50.729Z,0.70
2023-04-23T15:01:20.296Z,0.35
2023-04-23T15:03:52.907Z,0.32
2023-04-23T15:06:22.594Z,0.60
2023-04-23T15:08:52.106Z,0.43
2023-04-23T15:11:21.850Z,0.43
2023-04-23T15:14:00.097Z,0.55
2023-04-23T15:19:10.218Z,0.52
2023-04-23T15:21:43.371Z,0.40
2023-04-23T15:24:13.472Z,0.43
2023-04-23T15:26:43.134Z,0.55
2023-04-23T15:29:14.124Z,0.60
2023-04-23T15:31:43.779Z,0.55
2023-04-23T15:34:15.992Z,0.55
2023-04-23T15:36:45.500Z,0.88
2023-04-23T15:39:14.970Z,0.80
2023-04-23T15:41:46.113Z,0.40
2023-04-23T15:44:16.166Z,0.50
2023-04-23T15:46:45.667Z,0.47
2023-04-23T15:49:17.744Z,0.63
2023-04-23T15:53:34.724Z,0.50
2023-04-23T15:56:04.604Z,0.30
2023-04-23T15:58:34.008Z,0.50
2023-04-23T16:01:06.021Z,0.55
2023-04-23T16:03:35.825Z,0.30
2023-04-23T16:06:05.413Z,0.40
2023-04-23T16:08:37.386Z,0.65
2023-04-23T16:11:08.982Z,0.52
2023-04-23T16:13:38.602Z,0.50
2023-04-23T16:16:08.369Z,0.40
2023-04-23T16:18:37.718Z,0.73
2023-04-23T16:21:07.176Z,0.70
2023-04-23T16:23:39.146Z,0.43
2023-04-23T16:26:09.162Z,1.00
2023-04-23T16:28:38.602Z,0.68
2023-04-23T16:31:08.235Z,0.75
2023-04-23T16:33:37.652Z,0.90
2023-04-23T16:36:08.094Z,0.57
2023-04-23T16:38:40.220Z,0.80
2023-04-23T16:41:09.534Z,0.60
2023-04-23T16:43:38.851Z,0.40
2023-04-23T16:46:09.394Z,0.50
2023-04-23T16:48:38.789Z,0.60
2023-04-23T16:51:08.654Z,0.52
2023-04-23T16:53:40.814Z,0.60
2023-04-23T16:56:10.208Z,0.70
2023-04-23T16:58:39.690Z,0.57
2023-04-23T17:01:09.035Z,0.80
2023-04-23T17:03:40.309Z,0.75
2023-04-23T17:06:14.574Z,0.57
2023-04-23T17:08:46.653Z,0.63
2023-04-23T17:11:15.989Z,0.40
2023-04-23T17:13:45.889Z,0.82
2023-04-23T17:16:15.324Z,0.40
2023-04-23T17:18:44.692Z,0.60
2023-04-23T17:21:14.101Z,0.60
2023-04-23T17:23:45.993Z,0.80
2023-04-23T17:26:15.666Z,0.50
2023-04-23T17:28:44.993Z,0.68
2023-04-23T17:31:14.708Z,0.55
2023-04-23T17:33:47.089Z,0.45
2023-04-23T17:36:16.905Z,0.55
2023-04-23T17:38:48.892Z,0.57
2023-04-23T17:41:19.549Z,0.50
2023-04-23T17:43:49.450Z,0.60
2023-04-23T17:46:19.460Z,0.80
2023-04-23T17:48:49.157Z,0.63
2023-04-23T17:51:18.678Z,0.47
2023-04-23T17:53:52.035Z,0.50
2023-04-23T17:56:21.925Z,0.73
2023-04-23T17:58:51.294Z,0.70
2023-04-23T18:01:20.844Z,0.80
2023-04-23T18:03:51.817Z,0.30
2023-04-23T18:06:22.755Z,0.47
2023-04-23T18:08:54.723Z,0.80
2023-04-23T18:11:24.553Z,0.70
2023-04-23T18:13:53.920Z,0.80
2023-04-23T18:16:23.433Z,0.52
2023-04-23T18:18:52.862Z,0.80
2023-04-23T18:21:22.728Z,0.60
2023-04-23T18:23:54.752Z,0.70
2023-04-23T18:26:24.087Z,0.52
2023-04-23T18:28:53.421Z,0.80
2023-04-23T18:31:23.711Z,0.40
2023-04-23T18:33:56.647Z,0.65
2023-04-23T18:36:28.111Z,0.50
2023-04-23T18:39:00.309Z,0.50
2023-04-23T18:41:31.135Z,0.50
2023-04-23T18:44:00.582Z,0.65
2023-04-23T18:46:31.217Z,0.82
2023-04-23T18:49:03.372Z,0.30
2023-04-23T18:51:35.776Z,0.63
2023-04-23T18:54:07.911Z,0.50
2023-04-23T18:56:37.257Z,0.68
2023-04-23T18:59:06.594Z,0.52
2023-04-23T19:01:36.118Z,0.57
2023-04-23T19:04:06.134Z,0.60
2023-04-23T19:06:35.586Z,0.85
2023-04-23T19:09:07.509Z,0.73
2023-04-23T19:11:38.278Z,0.60
2023-04-23T19:14:07.722Z,0.80
2023-04-23T19:16:37.151Z,0.77
2023-04-23T19:19:06.525Z,0.82
2023-04-23T19:21:36.024Z,1.02
2023-04-23T19:24:08.421Z,0.80
2023-04-23T19:26:37.859Z,0.80
2023-04-23T19:29:08.128Z,0.47
2023-04-23T19:31:37.591Z,0.43
2023-04-23T19:34:07.000Z,0.55
2023-04-23T19:36:36.336Z,0.70
2023-04-23T19:39:08.204Z,0.80
2023-04-23T19:41:37.537Z,0.85
2023-04-23T19:44:07.051Z,0.88
2023-04-23T19:46:36.528Z,0.77
2023-04-23T19:49:06.114Z,0.70
2023-04-23T19:51:38.118Z,0.40
2023-04-23T19:54:10.201Z,0.65
2023-04-23T19:56:39.529Z,0.63
2023-04-23T19:59:09.811Z,0.40
2023-04-23T20:01:39.155Z,0.80
2023-04-23T20:04:09.552Z,0.80
2023-04-23T20:06:39.045Z,0.70
2023-04-23T20:09:18.482Z,0.65
2023-04-23T20:11:48.645Z,0.55
2023-04-23T20:14:18.037Z,0.52
2023-04-23T20:16:47.632Z,0.57
2023-04-23T20:19:19.283Z,0.80
2023-04-23T20:21:48.617Z,0.57
2023-04-23T20:24:21.502Z,0.70
2023-04-23T20:26:51.495Z,0.63
2023-04-23T20:29:20.853Z,1.10
2023-04-23T20:31:50.275Z,0.70
2023-04-23T20:34:20.042Z,0.70
2023-04-23T20:36:51.312Z,0.60
2023-04-23T20:39:24.538Z,0.70
2023-04-23T20:41:55.530Z,0.52
2023-04-23T20:44:25.945Z,0.73
2023-04-23T20:46:57.918Z,0.75
2023-04-23T20:49:27.863Z,0.70
2023-04-23T20:51:57.165Z,0.47
2023-04-23T20:54:30.591Z,0.80
2023-04-23T20:57:00.091Z,0.70
2023-04-23T20:59:29.420Z,0.63
2023-04-23T21:01:59.090Z,0.50
2023-04-23T21:04:28.502Z,0.55
2023-04-23T21:06:57.948Z,0.40
2023-04-23T21:09:29.938Z,0.35
2023-04-23T21:11:59.664Z,0.47
2023-04-23T21:14:29.111Z,0.60
2023-04-23T21:16:58.545Z,0.60
2023-04-23T21:19:27.891Z,0.50
2023-04-23T21:21:57.225Z,0.40
2023-04-23T21:24:26.692Z,0.88
2023-04-23T21:26:58.685Z,0.60
2023-04-23T21:29:28.680Z,1.00
2023-04-23T21:31:58.018Z,0.47
2023-04-23T21:34:27.570Z,0.85
2023-04-23T21:36:57.219Z,0.50
2023-04-23T21:39:26.528Z,0.45
2023-04-23T21:41:58.480Z,0.68
2023-04-23T21:44:28.742Z,0.52
2023-04-23T21:46:58.104Z,0.60
2023-04-23T21:49:27.900Z,0.40
2023-04-23T21:51:57.359Z,0.30
2023-04-23T21:54:26.718Z,0.57
2023-04-23T21:56:58.741Z,0.35
2023-04-23T21:59:29.509Z,0.30
2023-04-23T22:01:58.917Z,0.60
2023-04-23T22:04:30.768Z,0.43
2023-04-23T22:07:05.685Z,0.45
2023-04-23T22:09:35.041Z,0.30
2023-04-23T22:12:07.612Z,0.40
2023-04-23T22:14:37.341Z,0.52
2023-04-23T22:17:07.713Z,0.30
2023-04-23T22:19:39.514Z,0.60
2023-04-23T22:22:11.931Z,0.40
2023-04-23T22:24:41.375Z,0.40
2023-04-23T22:27:14.468Z,0.30
2023-04-23T22:29:46.086Z,0.40
2023-04-23T22:32:15.460Z,0.30
2023-04-23T22:34:44.906Z,0.35
2023-04-23T22:37:14.347Z,0.50
2023-04-23T22:39:43.979Z,0.32
2023-04-23T22:42:16.327Z,0.40
2023-04-23T22:44:46.255Z,0.60
2023-04-23T22:47:16.197Z,0.50
2023-04-23T22:49:46.128Z,0.47
2023-04-23T22:52:17.071Z,0.60
2023-04-23T22:54:47.011Z,0.50
2023-04-23T22:57:18.922Z,0.85
2023-04-23T22:59:49.441Z,0.30
2023-04-23T23:02:19.065Z,0.45
2023-04-23T23:04:50.732Z,0.32
2023-04-23T23:07:21.718Z,0.60
2023-04-23T23:09:51.057Z,0.50
2023-04-23T23:12:23.119Z,0.30
2023-04-23T23:14:52.588Z,0.50
2023-04-23T23:17:22.323Z,0.32
2023-04-23T23:19:51.689Z,0.60
2023-04-23T23:22:21.057Z,0.50
2023-04-23T23:24:50.393Z,0.30
2023-04-23T23:27:19.881Z,0.30
2023-04-23T23:29:51.799Z,0.22
2023-04-23T23:32:21.560Z,0.63
2023-04-23T23:34:50.925Z,0.30
2023-04-23T23:37:20.226Z,0.17
2023-04-23T23:39:49.851Z,0.30
2023-04-23T23:42:19.168Z,0.63
2023-04-23T23:44:51.130Z,0.40
2023-04-23T23:47:20.531Z,0.40
2023-04-23T23:49:50.028Z,0.75
2023-04-23T23:52:19.376Z,0.28
2023-04-23T23:54:48.683Z,0.38
2023-04-23T23:57:18.001Z,0.43
2023-04-23T23:59:47.346Z,0.75
